Time;durP1;ratioP1;P1;durP2;ratioP2;P2;SDS_P1;SDS_P2;PMS_P1;PMS_P2;Temp;Humidity;BMP_temperature;BMP_pressure;BME280_temperature;BME280_humidity;BME280_pressure;Samples;Min_cycle;Max_cycle;Signal;HPM_P1;HPM_P2
2022/10/14 00:01:09;;;;;;;10.52;9.52;;;;;;;;;;5062481;28;20040;-77
2022/10/14 00:03:37;;;;;;;13.50;10.68;;;;;;;;;;5069522;28;20055;-77
2022/10/14 00:06:15;;;;;;;12.68;9.90;;;;;;;;;;5062644;28;20048;-77
2022/10/14 00:08:43;;;;;;;15.82;10.00;;;;;;;;;;5085169;28;20131;-77
2022/10/14 00:11:14;;;;;;;12.90;9.00;;;;;;;;;;5070825;28;20040;-77
2022/10/14 00:13:42;;;;;;;16.83;10.38;;;;;;;;;;5053214;28;20056;-77
2022/10/14 00:16:19;;;;;;;10.75;9.35;;;;;;;;;;5068762;28;20048;-76
2022/10/14 00:18:47;;;;;;;16.35;10.43;;;;;;;;;;5043132;28;20041;-77
2022/10/14 00:21:14;;;;;;;18.52;10.20;;;;;;;;;;5078922;28;20037;-77
2022/10/14 00:23:41;;;;;;;14.70;9.85;;;;;;;;;;5051705;28;20048;-77
2022/10/14 00:26:16;;;;;;;12.43;10.52;;;;;;;;;;5050491;28;20755;-77
2022/10/14 00:28:43;;;;;;;21.05;10.70;;;;;;;;;;5068876;28;20044;-77
2022/10/14 00:31:11;;;;;;;17.25;10.77;;;;;;;;;;5037608;28;20128;-77
2022/10/14 00:33:38;;;;;;;12.85;10.70;;;;;;;;;;5030813;28;20068;-77
2022/10/14 00:36:06;;;;;;;17.65;10.40;;;;;;;;;;5077244;28;20071;-77
2022/10/14 00:38:34;;;;;;;14.68;10.68;;;;;;;;;;5069672;28;20048;-77
2022/10/14 00:41:02;;;;;;;12.90;10.65;;;;;;;;;;5052243;28;20044;-77
2022/10/14 00:43:30;;;;;;;19.85;10.13;;;;;;;;;;5050466;28;20498;-77
2022/10/14 00:45:57;;;;;;;13.35;10.23;;;;;;;;;;5046011;28;20171;-77
2022/10/14 00:48:25;;;;;;;12.07;10.40;;;;;;;;;;5051538;28;20032;-77
2022/10/14 00:50:56;;;;;;;21.63;10.65;;;;;;;;;;5026388;28;20044;-77
2022/10/14 00:53:23;;;;;;;16.17;10.30;;;;;;;;;;5049739;28;20084;-77
2022/10/14 00:55:52;;;;;;;17.25;10.85;;;;;;;;;;5044460;28;20094;-77
2022/10/14 00:58:22;;;;;;;15.00;10.20;;;;;;;;;;5036061;28;20506;-77
2022/10/14 01:00:50;;;;;;;16.75;10.43;;;;;;;;;;5032476;28;20106;-77
2022/10/14 01:03:18;;;;;;;15.15;11.45;;;;;;;;;;5052013;28;20040;-77
2022/10/14 01:05:52;;;;;;;18.65;10.93;;;;;;;;;;5038935;28;20049;-77
2022/10/14 01:08:46;;;;;;;17.08;10.57;;;;;;;;;;5040570;28;20110;-76
2022/10/14 01:11:16;;;;;;;16.55;11.55;;;;;;;;;;5042236;28;20076;-76
2022/10/14 01:13:55;;;;;;;17.23;10.80;;;;;;;;;;5039020;28;20045;-76
2022/10/14 01:16:29;;;;;;;13.38;9.63;;;;;;;;;;5045102;28;20044;-76
2022/10/14 01:19:22;;;;;;;16.63;11.27;;;;;;;;;;5048531;28;20068;-76
2022/10/14 01:22:02;;;;;;;14.50;12.15;;;;;;;;;;5050193;28;20041;-76
2022/10/14 01:24:38;;;;;;;21.17;12.55;;;;;;;;;;5050002;28;20052;-76
2022/10/14 01:27:05;;;;;;;22.17;11.35;;;;;;;;;;5053978;28;20040;-76
2022/10/14 01:29:38;;;;;;;16.13;11.73;;;;;;;;;;5048742;28;20067;-76
2022/10/14 01:32:09;;;;;;;13.20;11.68;;;;;;;;;;5043108;28;20040;-76
2022/10/14 01:34:42;;;;;;;19.60;13.82;;;;;;;;;;5045117;28;20036;-76
2022/10/14 01:37:13;;;;;;;15.85;11.88;;;;;;;;;;5066994;28;20045;-76
2022/10/14 01:39:49;;;;;;;18.40;13.63;;;;;;;;;;5005826;28;20059;-76
2022/10/14 01:42:20;;;;;;;19.88;12.52;;;;;;;;;;5026537;28;20127;-76
2022/10/14 01:44:55;;;;;;;20.60;12.27;;;;;;;;;;5058880;28;20044;-76
2022/10/14 01:47:24;;;;;;;20.15;13.30;;;;;;;;;;5066531;28;20045;-75
2022/10/14 01:49:55;;;;;;;25.40;12.93;;;;;;;;;;5067091;28;20075;-76
2022/10/14 01:52:26;;;;;;;20.35;13.52;;;;;;;;;;5064940;28;20059;-76
2022/10/14 01:54:55;;;;;;;20.27;14.65;;;;;;;;;;5049007;28;20044;-74
2022/10/14 01:57:25;;;;;;;21.67;15.25;;;;;;;;;;5061370;28;20052;-74
2022/10/14 01:59:54;;;;;;;27.20;17.17;;;;;;;;;;5062327;28;20044;-75
2022/10/14 02:02:22;;;;;;;20.73;14.98;;;;;;;;;;5050226;28;20759;-74
2022/10/14 02:04:50;;;;;;;21.55;15.18;;;;;;;;;;5046178;28;20442;-74
2022/10/14 02:07:20;;;;;;;29.00;15.77;;;;;;;;;;5038143;28;20124;-74
2022/10/14 02:10:00;;;;;;;23.55;14.63;;;;;;;;;;5043850;28;20048;-74
2022/10/14 02:12:42;;;;;;;27.70;15.50;;;;;;;;;;5055337;28;20045;-74
2022/10/14 02:15:18;;;;;;;18.90;13.93;;;;;;;;;;5023360;28;20683;-74
2022/10/14 02:18:04;;;;;;;20.73;14.60;;;;;;;;;;5022184;28;20040;-74
2022/10/14 02:20:36;;;;;;;21.15;15.80;;;;;;;;;;5049367;28;20053;-75
2022/10/14 02:23:29;;;;;;;22.67;16.48;;;;;;;;;;5036594;28;20052;-75
2022/10/14 02:25:57;;;;;;;22.85;16.33;;;;;;;;;;5049530;28;20057;-74
2022/10/14 02:28:25;;;;;;;34.45;19.70;;;;;;;;;;5060761;28;20566;-74
2022/10/14 02:30:56;;;;;;;33.63;19.10;;;;;;;;;;5038370;28;20119;-74
2022/10/14 02:33:26;;;;;;;39.20;19.88;;;;;;;;;;5059263;28;20516;-74
2022/10/14 02:35:54;;;;;;;32.42;19.15;;;;;;;;;;5069946;28;20033;-74
2022/10/14 02:38:21;;;;;;;35.28;20.40;;;;;;;;;;5033984;28;20054;-74
2022/10/14 02:40:52;;;;;;;33.13;19.98;;;;;;;;;;5026931;28;20071;-74
2022/10/14 02:43:19;;;;;;;33.95;19.38;;;;;;;;;;5060907;28;20063;-74
2022/10/14 02:45:46;;;;;;;32.35;18.25;;;;;;;;;;5048789;28;20124;-74
2022/10/14 02:48:14;;;;;;;23.90;15.80;;;;;;;;;;5049875;28;20120;-74
2022/10/14 02:50:41;;;;;;;28.88;18.25;;;;;;;;;;5082904;28;20456;-74
2022/10/14 02:53:12;;;;;;;32.30;18.42;;;;;;;;;;5059881;28;20060;-74
2022/10/14 02:55:39;;;;;;;29.52;18.77;;;;;;;;;;5040732;28;20664;-74
2022/10/14 02:58:07;;;;;;;22.00;15.68;;;;;;;;;;5031912;28;20049;-74
2022/10/14 03:00:34;;;;;;;25.35;16.20;;;;;;;;;;5049400;28;20106;-74
2022/10/14 03:03:01;;;;;;;25.00;16.92;;;;;;;;;;5044207;28;20059;-74
2022/10/14 03:05:30;;;;;;;27.10;16.58;;;;;;;;;;5040506;28;20051;-75
2022/10/14 03:07:57;;;;;;;25.55;15.75;;;;;;;;;;5052943;28;20068;-75
2022/10/14 03:10:27;;;;;;;24.27;16.08;;;;;;;;;;5060717;28;20097;-75
2022/10/14 03:12:54;;;;;;;20.70;14.60;;;;;;;;;;5046018;28;20041;-75
2022/10/14 03:15:29;;;;;;;28.67;16.33;;;;;;;;;;5037180;28;20040;-74
2022/10/14 03:17:57;;;;;;;26.75;16.73;;;;;;;;;;5047714;28;20530;-75
2022/10/14 03:20:33;;;;;;;23.08;15.65;;;;;;;;;;5044343;28;20086;-74
2022/10/14 03:23:01;;;;;;;22.75;14.93;;;;;;;;;;5044023;28;20044;-74
2022/10/14 03:25:28;;;;;;;22.67;16.05;;;;;;;;;;5047799;28;20048;-74
2022/10/14 03:28:01;;;;;;;33.70;15.93;;;;;;;;;;5065785;28;20140;-75
2022/10/14 03:30:39;;;;;;;20.42;14.23;;;;;;;;;;5051802;28;20090;-74
2022/10/14 03:33:12;;;;;;;24.85;14.98;;;;;;;;;;5050927;28;20049;-74
2022/10/14 03:35:51;;;;;;;26.15;16.35;;;;;;;;;;5045536;28;20044;-74
2022/10/14 03:38:24;;;;;;;22.40;15.02;;;;;;;;;;5048996;28;20073;-74
2022/10/14 03:40:52;;;;;;;26.13;16.35;;;;;;;;;;5035455;28;20040;-74
2022/10/14 03:43:19;;;;;;;26.40;15.68;;;;;;;;;;5048937;28;20043;-75
2022/10/14 03:45:53;;;;;;;28.55;16.23;;;;;;;;;;5045526;28;20059;-74
2022/10/14 03:48:23;;;;;;;31.63;17.08;;;;;;;;;;5040259;28;20087;-74
2022/10/14 03:50:50;;;;;;;31.40;17.33;;;;;;;;;;5043295;28;20110;-74
2022/10/14 03:53:19;;;;;;;37.30;17.98;;;;;;;;;;5047211;28;20487;-75
2022/10/14 03:55:47;;;;;;;24.38;14.48;;;;;;;;;;5030841;28;20068;-75
2022/10/14 03:58:14;;;;;;;29.73;16.98;;;;;;;;;;5048366;28;20040;-74
2022/10/14 04:00:48;;;;;;;20.60;14.25;;;;;;;;;;5050480;28;20044;-75
2022/10/14 04:03:32;;;;;;;27.13;15.45;;;;;;;;;;5053143;28;20051;-74
2022/10/14 04:06:00;;;;;;;18.88;13.65;;;;;;;;;;5027116;28;20510;-75
2022/10/14 04:08:29;;;;;;;31.85;17.95;;;;;;;;;;5050954;28;20106;-75
2022/10/14 04:11:00;;;;;;;29.08;16.95;;;;;;;;;;5046846;28;21373;-75
2022/10/14 04:13:35;;;;;;;32.70;16.98;;;;;;;;;;5058843;28;20042;-75
2022/10/14 04:16:03;;;;;;;27.52;15.45;;;;;;;;;;5051047;28;20040;-75
2022/10/14 04:18:38;;;;;;;34.28;16.58;;;;;;;;;;5075045;28;20097;-75
2022/10/14 04:21:09;;;;;;;29.67;16.77;;;;;;;;;;5059549;28;20532;-74
2022/10/14 04:23:37;;;;;;;30.48;16.77;;;;;;;;;;5043918;28;20095;-75
2022/10/14 04:26:12;;;;;;;24.75;15.45;;;;;;;;;;5040226;28;20037;-74
2022/10/14 04:28:43;;;;;;;28.10;16.65;;;;;;;;;;5046653;28;20040;-74
2022/10/14 04:31:29;;;;;;;33.03;18.13;;;;;;;;;;5031357;28;20128;-76
2022/10/14 04:34:00;;;;;;;31.50;18.00;;;;;;;;;;5007732;28;20052;-74
2022/10/14 04:36:36;;;;;;;29.10;15.80;;;;;;;;;;5041557;28;20040;-74
2022/10/14 04:39:10;;;;;;;31.20;18.02;;;;;;;;;;5029801;28;20040;-75
2022/10/14 04:41:37;;;;;;;27.52;17.55;;;;;;;;;;5033971;28;20053;-74
2022/10/14 04:44:05;;;;;;;28.95;17.15;;;;;;;;;;5035480;28;20388;-75
2022/10/14 04:46:39;;;;;;;37.35;19.40;;;;;;;;;;5041157;28;20040;-74
2022/10/14 04:49:08;;;;;;;30.17;17.98;;;;;;;;;;5059740;28;20559;-74
2022/10/14 04:51:46;;;;;;;27.52;16.85;;;;;;;;;;5047751;28;20040;-77
2022/10/14 04:54:20;;;;;;;29.48;17.13;;;;;;;;;;5038355;28;20043;-74
2022/10/14 04:56:52;;;;;;;29.58;17.45;;;;;;;;;;5023136;28;20527;-74
2022/10/14 04:59:19;;;;;;;41.40;19.20;;;;;;;;;;5065461;28;20036;-75
2022/10/14 05:02:11;;;;;;;36.33;19.30;;;;;;;;;;5024866;28;20071;-75
2022/10/14 05:04:45;;;;;;;34.50;18.08;;;;;;;;;;5036239;28;20127;-75
2022/10/14 05:07:13;;;;;;;32.20;17.50;;;;;;;;;;5046103;28;20119;-75
2022/10/14 05:09:41;;;;;;;35.90;19.65;;;;;;;;;;5051601;28;20044;-75
2022/10/14 05:12:26;;;;;;;35.65;18.77;;;;;;;;;;5019985;28;20200;-75
2022/10/14 05:14:58;;;;;;;27.63;16.42;;;;;;;;;;5049595;28;20076;-75
2022/10/14 05:17:35;;;;;;;40.42;21.52;;;;;;;;;;5034703;28;20045;-75
2022/10/14 05:20:04;;;;;;;36.10;21.35;;;;;;;;;;5062034;28;20313;-75
2022/10/14 05:22:31;;;;;;;29.65;19.52;;;;;;;;;;5046888;28;20054;-74
2022/10/14 05:24:59;;;;;;;40.53;23.83;;;;;;;;;;5035892;28;20041;-75
2022/10/14 05:27:27;;;;;;;32.00;19.23;;;;;;;;;;5052413;28;20060;-75
2022/10/14 05:29:55;;;;;;;31.02;20.27;;;;;;;;;;5078188;28;20573;-75
2022/10/14 05:32:22;;;;;;;35.00;21.75;;;;;;;;;;5036256;28;20052;-75
2022/10/14 05:34:53;;;;;;;39.25;20.25;;;;;;;;;;5027774;28;20055;-75
2022/10/14 05:37:29;;;;;;;36.53;20.40;;;;;;;;;;5043962;28;20452;-75
2022/10/14 05:39:57;;;;;;;35.10;21.23;;;;;;;;;;5047178;28;20039;-75
2022/10/14 05:42:26;;;;;;;39.25;19.88;;;;;;;;;;5049630;28;20094;-76
2022/10/14 05:44:56;;;;;;;41.40;21.77;;;;;;;;;;5049501;28;20571;-77
2022/10/14 05:47:24;;;;;;;37.88;21.35;;;;;;;;;;5039605;28;20037;-76
2022/10/14 05:49:57;;;;;;;37.92;21.45;;;;;;;;;;5052564;28;20632;-76
2022/10/14 05:52:25;;;;;;;38.05;20.15;;;;;;;;;;5050741;28;20115;-76
2022/10/14 05:54:53;;;;;;;25.70;16.33;;;;;;;;;;5035848;28;20070;-76
2022/10/14 05:57:24;;;;;;;34.72;20.15;;;;;;;;;;5036731;28;20037;-76
2022/10/14 05:59:51;;;;;;;34.33;19.42;;;;;;;;;;5037148;28;20123;-76
2022/10/14 06:02:18;;;;;;;34.08;18.95;;;;;;;;;;5052562;28;20035;-88
2022/10/14 06:04:47;;;;;;;38.20;19.33;;;;;;;;;;5052382;28;20036;-77
2022/10/14 06:07:16;;;;;;;40.53;20.40;;;;;;;;;;5027596;28;20044;-76
2022/10/14 06:09:44;;;;;;;32.95;19.52;;;;;;;;;;5029286;28;20386;-76
2022/10/14 06:12:11;;;;;;;41.58;20.90;;;;;;;;;;5041416;28;20071;-76
2022/10/14 06:14:39;;;;;;;32.65;19.48;;;;;;;;;;5056813;28;20498;-77
2022/10/14 06:17:07;;;;;;;39.78;21.63;;;;;;;;;;5015800;28;20552;-76
2022/10/14 06:19:34;;;;;;;41.17;22.08;;;;;;;;;;5027753;28;20037;-76
2022/10/14 06:22:02;;;;;;;44.90;25.85;;;;;;;;;;5021692;28;20363;-76
2022/10/14 06:24:30;;;;;;;44.97;23.55;;;;;;;;;;5052613;28;20453;-76
2022/10/14 06:26:57;;;;;;;43.70;22.08;;;;;;;;;;5057776;28;20068;-76
2022/10/14 06:29:30;;;;;;;39.60;19.48;;;;;;;;;;5072073;28;20068;-76
2022/10/14 06:31:57;;;;;;;41.67;22.08;;;;;;;;;;5066566;28;20401;-77
2022/10/14 06:34:24;;;;;;;44.53;22.77;;;;;;;;;;5049456;28;20059;-76
2022/10/14 06:36:51;;;;;;;47.47;21.27;;;;;;;;;;5021645;28;20040;-76
2022/10/14 06:39:18;;;;;;;41.00;21.63;;;;;;;;;;5059172;28;20052;-76
2022/10/14 06:41:46;;;;;;;41.58;21.70;;;;;;;;;;5038681;28;20037;-76
2022/10/14 06:44:24;;;;;;;48.08;22.15;;;;;;;;;;5045982;28;20036;-76
2022/10/14 06:46:51;;;;;;;37.35;20.45;;;;;;;;;;5055460;28;20095;-76
2022/10/14 06:49:18;;;;;;;45.10;22.63;;;;;;;;;;5056530;28;20422;-75
2022/10/14 06:51:45;;;;;;;35.53;20.17;;;;;;;;;;5033662;28;20055;-76
2022/10/14 06:54:13;;;;;;;46.15;22.15;;;;;;;;;;5035480;28;20444;-76
2022/10/14 06:56:40;;;;;;;40.95;21.13;;;;;;;;;;5062994;28;20596;-76
2022/10/14 06:59:08;;;;;;;46.92;23.42;;;;;;;;;;5057231;28;20139;-75
2022/10/14 07:01:35;;;;;;;42.45;22.15;;;;;;;;;;5043074;28;20083;-76
2022/10/14 07:04:03;;;;;;;35.40;20.67;;;;;;;;;;5057655;28;20051;-76
2022/10/14 07:06:31;;;;;;;37.45;19.67;;;;;;;;;;5048763;28;20056;-77
2022/10/14 07:08:58;;;;;;;41.28;21.33;;;;;;;;;;5050323;28;20045;-76
2022/10/14 07:11:25;;;;;;;43.60;22.20;;;;;;;;;;5071762;28;20045;-76
2022/10/14 07:13:54;;;;;;;39.35;20.33;;;;;;;;;;5068867;28;20064;-76
2022/10/14 07:16:23;;;;;;;45.65;22.70;;;;;;;;;;5070953;28;20127;-76
2022/10/14 07:18:50;;;;;;;37.35;20.77;;;;;;;;;;5075442;28;20452;-76
2022/10/14 07:21:17;;;;;;;38.60;20.13;;;;;;;;;;5067187;28;20060;-76
2022/10/14 07:23:45;;;;;;;42.40;21.25;;;;;;;;;;5064377;28;20033;-76
2022/10/14 07:26:12;;;;;;;39.30;19.88;;;;;;;;;;5063054;28;20049;-75
2022/10/14 07:28:40;;;;;;;40.25;20.98;;;;;;;;;;5035045;28;20059;-76
2022/10/14 07:31:09;;;;;;;36.63;19.60;;;;;;;;;;5008782;28;20056;-76
2022/10/14 07:33:38;;;;;;;36.10;18.88;;;;;;;;;;5001059;28;20049;-78
2022/10/14 07:36:08;;;;;;;52.33;24.23;;;;;;;;;;5015367;28;20052;-75
2022/10/14 07:38:38;;;;;;;44.00;21.67;;;;;;;;;;5052563;28;20052;-78
2022/10/14 07:41:08;;;;;;;43.60;22.05;;;;;;;;;;5018312;28;20068;-76
2022/10/14 07:43:35;;;;;;;47.05;22.80;;;;;;;;;;5029280;28;20045;-76
2022/10/14 07:46:04;;;;;;;41.42;21.50;;;;;;;;;;5063614;28;20055;-77
2022/10/14 07:48:32;;;;;;;40.80;21.23;;;;;;;;;;5069794;28;20040;-77
2022/10/14 07:51:20;;;;;;;44.78;21.77;;;;;;;;;;5067441;28;20036;-76
2022/10/14 07:53:49;;;;;;;44.70;21.67;;;;;;;;;;5047860;28;20052;-76
2022/10/14 07:56:16;;;;;;;39.85;21.80;;;;;;;;;;5067447;28;20032;-76
2022/10/14 07:58:45;;;;;;;43.90;22.45;;;;;;;;;;5065710;28;20136;-77
2022/10/14 08:01:14;;;;;;;45.63;22.23;;;;;;;;;;5049936;28;20048;-77
2022/10/14 08:03:42;;;;;;;50.28;23.45;;;;;;;;;;5062512;28;20032;-76
2022/10/14 08:06:09;;;;;;;36.97;19.88;;;;;;;;;;5067725;28;20131;-77
2022/10/14 08:08:37;;;;;;;46.03;23.02;;;;;;;;;;5049427;28;20086;-76
2022/10/14 08:11:05;;;;;;;46.28;21.88;;;;;;;;;;5070863;28;20068;-76
2022/10/14 08:13:32;;;;;;;44.65;21.90;;;;;;;;;;5065624;28;20490;-76
2022/10/14 08:16:00;;;;;;;43.47;20.45;;;;;;;;;;5048437;28;20141;-77
2022/10/14 08:18:28;;;;;;;47.22;23.30;;;;;;;;;;5068024;28;20044;-76
2022/10/14 08:20:55;;;;;;;44.75;22.17;;;;;;;;;;5033167;28;20132;-76
2022/10/14 08:23:22;;;;;;;44.53;21.88;;;;;;;;;;5066359;28;20130;-76
2022/10/14 08:25:50;;;;;;;34.83;19.02;;;;;;;;;;5064985;28;20502;-75
2022/10/14 08:28:17;;;;;;;38.00;20.25;;;;;;;;;;5061546;28;20406;-76
2022/10/14 08:30:44;;;;;;;49.33;23.35;;;;;;;;;;5047689;28;20075;-76
2022/10/14 08:33:12;;;;;;;46.05;20.08;;;;;;;;;;5044112;28;20045;-76
2022/10/14 08:35:39;;;;;;;47.38;23.15;;;;;;;;;;5048703;28;20464;-75
2022/10/14 08:38:06;;;;;;;50.80;23.88;;;;;;;;;;5051663;28;20040;-76
2022/10/14 08:40:42;;;;;;;50.42;23.73;;;;;;;;;;5050910;28;20047;-76
2022/10/14 08:43:20;;;;;;;48.05;23.65;;;;;;;;;;5067753;28;20056;-86
2022/10/14 08:45:51;;;;;;;45.47;23.48;;;;;;;;;;5041899;28;20490;-77
2022/10/14 08:48:20;;;;;;;53.00;24.33;;;;;;;;;;5046614;28;20532;-76
2022/10/14 08:50:51;;;;;;;47.35;22.55;;;;;;;;;;5067357;28;20414;-82
2022/10/14 08:53:37;;;;;;;52.90;23.85;;;;;;;;;;5041392;28;20051;-76
2022/10/14 08:56:05;;;;;;;55.47;24.40;;;;;;;;;;5057378;28;20095;-77
2022/10/14 08:58:34;;;;;;;53.75;25.38;;;;;;;;;;5063970;28;20048;-76
2022/10/14 09:01:04;;;;;;;60.97;28.08;;;;;;;;;;5030376;28;20051;-77
2022/10/14 09:03:38;;;;;;;45.13;24.27;;;;;;;;;;5060089;28;20223;-76
2022/10/14 09:06:10;;;;;;;49.33;25.73;;;;;;;;;;5062508;28;20551;-76
2022/10/14 09:08:41;;;;;;;54.17;25.42;;;;;;;;;;5054247;28;20183;-76
2022/10/14 09:11:17;;;;;;;51.90;27.83;;;;;;;;;;5060244;28;20045;-76
2022/10/14 09:13:49;;;;;;;55.95;28.65;;;;;;;;;;5057052;28;20041;-82
2022/10/14 09:16:36;;;;;;;40.75;21.95;;;;;;;;;;5069231;28;20448;-75
2022/10/14 09:19:14;;;;;;;51.97;26.23;;;;;;;;;;5069160;28;20048;-76
2022/10/14 09:21:54;;;;;;;39.22;22.52;;;;;;;;;;5074073;28;20128;-76
2022/10/14 09:24:24;;;;;;;35.75;22.15;;;;;;;;;;5062130;28;20127;-75
2022/10/14 09:26:54;;;;;;;35.50;21.98;;;;;;;;;;5073644;28;20052;-86
2022/10/14 09:29:31;;;;;;;37.38;22.73;;;;;;;;;;5065804;28;20076;-76
2022/10/14 09:32:01;;;;;;;27.08;18.58;;;;;;;;;;5054742;28;20125;-76
2022/10/14 09:34:33;;;;;;;34.22;21.75;;;;;;;;;;5070250;28;20040;-79
2022/10/14 09:37:20;;;;;;;30.80;19.27;;;;;;;;;;5064777;28;20048;-77
2022/10/14 09:39:50;;;;;;;24.92;18.35;;;;;;;;;;5069297;28;20044;-76
2022/10/14 09:42:19;;;;;;;29.15;20.13;;;;;;;;;;5065474;28;20517;-79
2022/10/14 09:45:03;;;;;;;30.10;18.77;;;;;;;;;;5065529;28;20036;-77
2022/10/14 09:47:31;;;;;;;24.63;17.40;;;;;;;;;;5049647;28;20040;-76
2022/10/14 09:49:59;;;;;;;28.38;17.15;;;;;;;;;;5066161;28;20043;-77
2022/10/14 09:52:28;;;;;;;24.10;17.80;;;;;;;;;;5066848;28;20028;-77
2022/10/14 09:55:00;;;;;;;22.02;17.65;;;;;;;;;;5063506;28;20037;-77
2022/10/14 09:57:31;;;;;;;24.80;17.70;;;;;;;;;;5057802;28;20059;-77
2022/10/14 09:59:59;;;;;;;27.65;17.00;;;;;;;;;;5065567;28;20040;-77
2022/10/14 10:02:45;;;;;;;23.52;16.13;;;;;;;;;;5069403;28;20082;-77
2022/10/14 10:05:23;;;;;;;25.25;16.45;;;;;;;;;;5059502;28;20459;-77
2022/10/14 10:08:01;;;;;;;21.50;15.18;;;;;;;;;;5032544;28;20052;-77
2022/10/14 10:10:33;;;;;;;24.13;16.15;;;;;;;;;;5065885;28;20414;-77
2022/10/14 10:13:01;;;;;;;23.90;14.63;;;;;;;;;;5045254;28;20469;-78
2022/10/14 10:15:29;;;;;;;19.20;14.27;;;;;;;;;;5053754;28;20052;-77
2022/10/14 10:17:56;;;;;;;19.85;14.20;;;;;;;;;;5044229;28;20123;-79
2022/10/14 10:20:32;;;;;;;22.35;15.57;;;;;;;;;;5042369;28;20064;-77
2022/10/14 10:23:16;;;;;;;19.23;14.45;;;;;;;;;;5063075;28;20117;-77
2022/10/14 10:25:43;;;;;;;15.82;13.02;;;;;;;;;;5037712;28;20315;-77
2022/10/14 10:28:19;;;;;;;19.65;13.57;;;;;;;;;;5045021;28;20098;-77
2022/10/14 10:31:05;;;;;;;19.85;13.43;;;;;;;;;;5063273;28;20043;-78
2022/10/14 10:33:55;;;;;;;20.30;12.93;;;;;;;;;;5043422;28;20076;-79
2022/10/14 10:36:27;;;;;;;17.45;13.30;;;;;;;;;;5055451;28;20033;-77
2022/10/14 10:38:58;;;;;;;16.77;12.52;;;;;;;;;;5061725;28;20510;-77
2022/10/14 10:41:39;;;;;;;16.55;11.65;;;;;;;;;;5069712;28;20028;-77
2022/10/14 10:44:15;;;;;;;12.85;10.95;;;;;;;;;;5046379;28;20063;-79
2022/10/14 10:47:01;;;;;;;14.85;10.73;;;;;;;;;;5064526;28;20049;-77
2022/10/14 10:49:37;;;;;;;13.38;10.65;;;;;;;;;;5046020;28;20039;-76
2022/10/14 10:52:08;;;;;;;11.70;9.32;;;;;;;;;;5046598;28;20051;-78
2022/10/14 10:54:49;;;;;;;14.20;10.80;;;;;;;;;;5062703;28;20040;-77
2022/10/14 10:57:35;;;;;;;13.27;11.88;;;;;;;;;;5069633;28;20036;-76
2022/10/14 11:00:09;;;;;;;11.88;10.70;;;;;;;;;;5063094;28;20045;-77
2022/10/14 11:02:44;;;;;;;15.40;10.00;;;;;;;;;;5024542;28;20044;-77
2022/10/14 11:05:25;;;;;;;10.45;9.35;;;;;;;;;;5057169;28;20270;-77
2022/10/14 11:14:06;;;;;;;8.50;7.60;;;;;;;;;;5051948;28;20048;-76
2022/10/14 11:16:39;;;;;;;11.10;9.05;;;;;;;;;;5015748;28;20098;-78
2022/10/14 11:19:16;;;;;;;14.98;8.40;;;;;;;;;;5065647;28;20804;-77
2022/10/14 11:22:03;;;;;;;8.50;7.38;;;;;;;;;;5056780;28;20036;-76
2022/10/14 11:24:45;;;;;;;8.15;6.88;;;;;;;;;;5066954;28;20664;-76
2022/10/14 11:27:17;;;;;;;8.25;7.15;;;;;;;;;;5071430;28;20036;-82
2022/10/14 11:30:00;;;;;;;7.43;5.95;;;;;;;;;;5067347;28;20118;-77
2022/10/14 11:32:37;;;;;;;7.60;5.60;;;;;;;;;;5067577;28;20033;-77
2022/10/14 11:35:20;;;;;;;5.50;5.00;;;;;;;;;;5074586;28;20048;-76
2022/10/14 11:38:06;;;;;;;8.55;5.45;;;;;;;;;;5043599;28;20044;-76
2022/10/14 11:40:38;;;;;;;6.32;4.97;;;;;;;;;;5043850;28;20045;-77
2022/10/14 11:43:17;;;;;;;7.13;4.97;;;;;;;;;;5035378;28;20526;-76
2022/10/14 11:45:48;;;;;;;5.38;4.97;;;;;;;;;;5044912;28;20071;-76
2022/10/14 11:48:35;;;;;;;7.90;4.88;;;;;;;;;;5063249;28;20041;-77
2022/10/14 11:51:05;;;;;;;8.02;5.28;;;;;;;;;;5057784;28;20110;-77
2022/10/14 11:53:45;;;;;;;7.13;4.70;;;;;;;;;;5062714;28;20037;-76
2022/10/14 11:56:31;;;;;;;6.57;4.85;;;;;;;;;;5034053;28;20131;-77
2022/10/14 11:59:18;;;;;;;5.70;4.57;;;;;;;;;;5056033;28;20098;-77
2022/10/14 12:01:47;;;;;;;5.90;5.30;;;;;;;;;;5038824;28;20136;-76
2022/10/14 12:04:26;;;;;;;5.32;4.82;;;;;;;;;;5059092;28;20072;-76
2022/10/14 12:06:59;;;;;;;4.90;4.50;;;;;;;;;;5067584;28;20044;-76
2022/10/14 12:09:35;;;;;;;5.22;4.60;;;;;;;;;;5057369;28;20509;-76
2022/10/14 12:12:09;;;;;;;4.60;4.18;;;;;;;;;;5064228;28;20032;-77
2022/10/14 12:14:36;;;;;;;6.07;4.35;;;;;;;;;;5047420;28;20502;-76
2022/10/14 12:17:06;;;;;;;6.30;4.35;;;;;;;;;;5065377;28;20041;-76
2022/10/14 12:19:33;;;;;;;8.05;5.00;;;;;;;;;;5047224;28;20520;-77
2022/10/14 12:22:06;;;;;;;6.10;4.68;;;;;;;;;;5079229;28;20044;-76
2022/10/14 12:24:36;;;;;;;8.00;5.05;;;;;;;;;;5073619;28;20044;-76
2022/10/14 12:27:05;;;;;;;7.07;5.03;;;;;;;;;;5046628;28;20074;-77
2022/10/14 12:29:42;;;;;;;5.63;5.22;;;;;;;;;;5080005;28;20561;-75
2022/10/14 12:32:15;;;;;;;6.63;4.30;;;;;;;;;;5053712;28;20044;-76
2022/10/14 12:34:43;;;;;;;5.28;4.50;;;;;;;;;;5074611;28;20029;-77
2022/10/14 12:37:33;;;;;;;4.93;3.95;;;;;;;;;;5074797;28;20036;-77
2022/10/14 12:40:01;;;;;;;4.28;3.88;;;;;;;;;;5056763;28;20132;-77
2022/10/14 12:42:31;;;;;;;4.90;4.40;;;;;;;;;;5078939;28;20401;-76
2022/10/14 12:45:02;;;;;;;7.70;4.10;;;;;;;;;;5060548;28;20385;-76
2022/10/14 12:47:33;;;;;;;6.32;4.22;;;;;;;;;;5054661;28;20585;-77
2022/10/14 12:50:24;;;;;;;4.95;4.45;;;;;;;;;;5070355;28;20036;-75
2022/10/14 12:53:00;;;;;;;4.72;4.28;;;;;;;;;;5039477;28;20076;-75
2022/10/14 12:55:29;;;;;;;4.90;4.20;;;;;;;;;;5068291;28;20071;-76
2022/10/14 12:58:01;;;;;;;6.00;4.57;;;;;;;;;;5066471;28;20036;-76
2022/10/14 13:00:51;;;;;;;5.13;4.35;;;;;;;;;;5043482;28;20045;-75
2022/10/14 13:03:21;;;;;;;7.88;4.95;;;;;;;;;;5059955;28;20048;-76
2022/10/14 13:05:51;;;;;;;5.63;4.80;;;;;;;;;;5051728;28;20052;-80
2022/10/14 13:08:22;;;;;;;5.15;4.47;;;;;;;;;;5069170;28;20510;-77
2022/10/14 13:10:59;;;;;;;5.07;4.38;;;;;;;;;;5068987;28;20447;-76
2022/10/14 13:13:43;;;;;;;4.53;4.15;;;;;;;;;;5069104;28;20079;-76
2022/10/14 13:16:30;;;;;;;4.55;4.15;;;;;;;;;;5033296;28;20540;-76
2022/10/14 13:19:01;;;;;;;9.60;4.30;;;;;;;;;;5021695;28;20048;-77
2022/10/14 13:21:35;;;;;;;4.07;3.72;;;;;;;;;;5033482;28;20051;-76
2022/10/14 13:24:15;;;;;;;4.53;4.10;;;;;;;;;;5067752;28;20513;-76
2022/10/14 13:26:55;;;;;;;6.55;4.40;;;;;;;;;;5068244;28;20087;-79
2022/10/14 13:29:22;;;;;;;5.40;4.32;;;;;;;;;;5053723;28;20120;-77
2022/10/14 13:31:55;;;;;;;7.20;4.15;;;;;;;;;;5067980;28;20131;-77
2022/10/14 13:34:23;;;;;;;6.25;4.40;;;;;;;;;;5050545;28;20504;-76
2022/10/14 13:37:03;;;;;;;4.72;4.20;;;;;;;;;;5058178;28;20051;-76
2022/10/14 13:39:31;;;;;;;7.28;4.72;;;;;;;;;;5061619;28;20040;-77
2022/10/14 13:41:59;;;;;;;4.57;3.90;;;;;;;;;;5056142;28;20048;-77
2022/10/14 13:44:27;;;;;;;4.07;3.65;;;;;;;;;;5070434;28;20123;-76
2022/10/14 13:46:55;;;;;;;4.30;3.88;;;;;;;;;;5070697;28;20060;-77
2022/10/14 13:49:29;;;;;;;4.18;3.70;;;;;;;;;;5069491;28;20041;-76
2022/10/14 13:51:59;;;;;;;4.90;3.90;;;;;;;;;;5069174;28;20040;-76
2022/10/14 13:54:29;;;;;;;4.18;3.78;;;;;;;;;;5068047;28;20319;-76
2022/10/14 13:57:08;;;;;;;4.32;3.92;;;;;;;;;;5051483;28;20044;-76
2022/10/14 13:59:55;;;;;;;4.80;3.83;;;;;;;;;;5069092;28;20078;-76
2022/10/14 14:02:43;;;;;;;3.80;3.50;;;;;;;;;;5065900;28;20071;-77
2022/10/14 14:05:15;;;;;;;4.03;3.72;;;;;;;;;;5026272;28;20083;-76
2022/10/14 14:07:43;;;;;;;6.07;3.88;;;;;;;;;;5058577;28;20071;-76
2022/10/14 14:10:30;;;;;;;4.55;3.97;;;;;;;;;;5039070;28;20060;-76
2022/10/14 14:13:00;;;;;;;5.60;3.95;;;;;;;;;;5064994;28;20068;-75
2022/10/14 14:15:28;;;;;;;4.25;3.80;;;;;;;;;;5065182;28;20477;-75
2022/10/14 14:17:56;;;;;;;5.82;3.55;;;;;;;;;;5048726;28;20053;-77
2022/10/14 14:20:27;;;;;;;8.48;3.80;;;;;;;;;;5050909;28;20052;-77
2022/10/14 14:22:57;;;;;;;8.02;3.80;;;;;;;;;;5060189;28;20276;-76
2022/10/14 14:25:26;;;;;;;3.75;3.45;;;;;;;;;;5034694;28;20052;-76
2022/10/14 14:28:14;;;;;;;5.30;3.55;;;;;;;;;;5068133;28;20040;-77
2022/10/14 14:30:47;;;;;;;3.60;3.30;;;;;;;;;;5050799;28;20090;-76
2022/10/14 14:33:27;;;;;;;3.80;3.28;;;;;;;;;;5068831;28;20040;-76
2022/10/14 14:35:56;;;;;;;7.60;4.00;;;;;;;;;;5059426;28;20071;-78
2022/10/14 14:38:31;;;;;;;4.20;3.78;;;;;;;;;;5068362;28;20044;-77
2022/10/14 14:41:06;;;;;;;7.10;4.75;;;;;;;;;;5032818;28;20044;-77
2022/10/14 14:43:34;;;;;;;11.68;3.55;;;;;;;;;;5057036;28;20141;-77
2022/10/14 14:46:10;;;;;;;6.13;4.30;;;;;;;;;;5068088;28;20085;-76
2022/10/14 14:48:41;;;;;;;5.90;4.07;;;;;;;;;;5069258;28;20036;-77
2022/10/14 14:51:10;;;;;;;4.67;3.97;;;;;;;;;;5051125;28;20128;-76
2022/10/14 14:53:40;;;;;;;6.85;3.80;;;;;;;;;;5050675;28;20555;-76
2022/10/14 14:56:17;;;;;;;4.65;4.03;;;;;;;;;;5050774;28;20055;-77
2022/10/14 14:58:51;;;;;;;6.95;4.40;;;;;;;;;;5050724;28;20086;-77